Time;durP1;ratioP1;P1;durP2;ratioP2;P2;SDS_P1;SDS_P2;PMS_P1;PMS_P2;Temp;Humidity;BMP_temperature;BMP_pressure;BME280_temperature;BME280_humidity;BME280_pressure;Samples;Min_cycle;Max_cycle;Signal;HPM_P1;HPM_P2
2022/02/02 05:05:29;;;;;;;17.08;2.72;;;6.60;99.90;;;;;;4937759;28;20634;-68
2022/02/02 05:08:04;;;;;;;4.82;2.50;;;6.60;99.90;;;;;;4970295;28;20797;-67
2022/02/02 05:10:39;;;;;;;8.38;2.60;;;6.60;99.90;;;;;;4972687;28;20228;-68
2022/02/02 05:16:15;;;;;;;13.95;6.30;;;6.50;99.90;;;;;;4938459;28;20199;-67
2022/02/02 05:19:09;;;;;;;6.57;2.83;;;6.40;99.90;;;;;;4972957;28;20649;-67
2022/02/02 05:41:57;;;;;;;7.40;2.70;;;6.30;99.90;;;;;;4964966;28;20239;-67
2022/02/02 05:44:38;;;;;;;8.65;2.30;;;6.30;99.90;;;;;;4941993;28;20217;-67
2022/02/02 05:50:15;;;;;;;12.73;2.60;;;6.30;99.90;;;;;;4971384;28;20282;-67
2022/02/02 05:52:45;;;;;;;8.82;2.90;;;6.30;99.90;;;;;;4970691;28;20264;-67
2022/02/02 05:55:12;;;;;;;3.67;1.88;;;6.30;99.90;;;;;;4972443;28;20687;-67
2022/02/02 05:57:42;;;;;;;9.88;2.80;;;6.30;99.90;;;;;;4969622;28;20780;-67
2022/02/02 06:00:09;;;;;;;9.93;2.83;;;6.30;99.90;;;;;;4967354;28;20267;-67
2022/02/02 06:02:38;;;;;;;6.28;1.88;;;6.30;99.90;;;;;;4968347;28;20634;-67
2022/02/02 06:05:08;;;;;;;8.55;2.75;;;6.30;99.90;;;;;;4956600;28;20201;-67
2022/02/02 06:07:36;;;;;;;10.32;4.18;;;6.30;99.90;;;;;;4967304;28;20205;-67
2022/02/02 06:10:06;;;;;;;16.27;2.55;;;6.30;99.90;;;;;;4976022;28;20296;-67
2022/02/02 06:12:34;;;;;;;5.03;1.55;;;6.30;99.90;;;;;;4973576;28;20331;-67
2022/02/02 06:15:08;;;;;;;7.63;3.10;;;6.30;99.90;;;;;;4970821;28;20315;-67
2022/02/02 06:17:39;;;;;;;6.32;3.35;;;6.30;99.90;;;;;;4944600;28;20205;-67
2022/02/02 06:20:07;;;;;;;11.20;2.70;;;6.40;99.90;;;;;;4974236;28;20354;-67
2022/02/02 06:22:42;;;;;;;7.90;4.07;;;6.40;99.90;;;;;;4972244;28;20224;-67
2022/02/02 06:25:22;;;;;;;3.38;1.33;;;6.40;99.90;;;;;;4971888;28;20207;-66
2022/02/02 06:27:59;;;;;;;7.50;2.25;;;6.40;99.90;;;;;;4967461;28;20292;-67
2022/02/02 06:30:27;;;;;;;2.10;1.90;;;6.40;99.90;;;;;;4941216;28;20292;-67
2022/02/02 06:33:03;;;;;;;6.57;2.13;;;6.40;99.90;;;;;;4947158;28;20233;-66
2022/02/02 06:35:30;;;;;;;9.48;2.55;;;6.40;99.90;;;;;;4958964;28;20547;-66
2022/02/02 06:37:58;;;;;;;3.25;1.70;;;6.40;99.90;;;;;;4953638;28;20213;-67
2022/02/02 06:40:26;;;;;;;5.85;1.25;;;6.40;99.90;;;;;;4957564;28;20256;-66
2022/02/02 06:42:53;;;;;;;5.97;1.95;;;6.40;99.90;;;;;;4956096;28;20242;-66
2022/02/02 06:45:21;;;;;;;6.10;2.20;;;6.50;99.90;;;;;;4958420;28;20315;-66
2022/02/02 06:47:49;;;;;;;6.47;1.95;;;6.50;99.90;;;;;;4969581;28;20314;-66
2022/02/02 06:50:21;;;;;;;10.27;2.20;;;6.40;99.90;;;;;;4957310;28;20296;-68
2022/02/02 06:52:59;;;;;;;4.45;1.95;;;6.50;99.90;;;;;;4958313;28;20212;-67
2022/02/02 06:55:35;;;;;;;7.75;2.95;;;6.40;99.90;;;;;;4974818;28;20236;-67
2022/02/02 06:58:15;;;;;;;7.93;2.30;;;6.50;99.90;;;;;;4968868;28;20291;-67
2022/02/02 07:03:46;;;;;;;5.25;1.85;;;6.40;99.90;;;;;;4951975;29;20201;-67
2022/02/02 07:06:24;;;;;;;3.45;2.22;;;6.40;99.90;;;;;;4956576;28;20216;-68
2022/02/02 07:09:13;;;;;;;5.95;1.27;;;6.40;99.90;;;;;;4955578;28;20543;-67
2022/02/02 07:11:58;;;;;;;5.15;0.95;;;6.50;99.90;;;;;;4955169;28;20240;-67
2022/02/02 07:14:37;;;;;;;4.40;1.23;;;6.50;99.90;;;;;;4967750;28;20196;-67
2022/02/02 07:17:18;;;;;;;3.55;1.80;;;6.50;99.90;;;;;;4973254;28;20854;-67
2022/02/02 07:19:59;;;;;;;6.47;2.65;;;6.40;99.90;;;;;;4959537;28;20237;-67
2022/02/02 07:22:50;;;;;;;8.15;1.77;;;6.40;99.90;;;;;;4952360;28;20255;-68
2022/02/02 07:28:03;;;;;;;4.78;1.70;;;6.40;99.90;;;;;;4966495;28;20227;-67
2022/02/02 07:30:46;;;;;;;2.15;1.50;;;6.40;99.90;;;;;;4972691;28;20209;-67
2022/02/02 07:33:20;;;;;;;4.03;1.42;;;6.50;99.90;;;;;;4939664;28;20324;-67
2022/02/02 07:36:00;;;;;;;4.72;1.58;;;6.40;99.90;;;;;;4945395;28;20208;-66
2022/02/02 07:38:33;;;;;;;7.05;2.00;;;6.40;99.90;;;;;;4954871;28;20280;-66
2022/02/02 07:41:06;;;;;;;17.80;4.22;;;6.40;99.90;;;;;;4969999;28;20224;-67
2022/02/02 07:43:37;;;;;;;2.45;1.40;;;6.40;99.90;;;;;;4972545;28;20200;-67
2022/02/02 07:46:06;;;;;;;3.03;1.25;;;6.40;99.90;;;;;;4939908;28;20209;-68
2022/02/02 07:48:38;;;;;;;13.13;2.15;;;6.50;99.90;;;;;;4955227;28;20224;-67
2022/02/02 07:51:06;;;;;;;8.07;2.20;;;6.50;99.90;;;;;;4972677;28;20240;-68
2022/02/02 07:53:38;;;;;;;4.63;1.45;;;6.40;99.90;;;;;;4973242;28;20298;-67
2022/02/02 07:56:11;;;;;;;5.50;1.70;;;6.40;99.90;;;;;;4958619;28;20259;-67
2022/02/02 07:58:42;;;;;;;10.40;2.70;;;6.40;99.90;;;;;;4955224;28;20682;-66
2022/02/02 08:01:09;;;;;;;15.52;2.63;;;6.50;99.90;;;;;;4970098;28;20286;-68
2022/02/02 08:03:40;;;;;;;8.68;3.58;;;6.50;99.90;;;;;;4973377;28;20207;-68
2022/02/02 08:06:09;;;;;;;10.80;1.58;;;6.50;99.90;;;;;;4951187;28;20209;-67
2022/02/02 08:08:38;;;;;;;8.90;2.17;;;6.50;99.90;;;;;;4954484;28;20209;-68
2022/02/02 08:11:07;;;;;;;10.68;2.47;;;6.50;99.90;;;;;;4968292;28;20245;-68
2022/02/02 08:13:41;;;;;;;11.85;1.67;;;6.50;99.90;;;;;;4966645;28;20279;-67
2022/02/02 08:16:13;;;;;;;3.17;2.40;;;6.50;99.90;;;;;;4972812;28;20201;-67
2022/02/02 08:18:43;;;;;;;4.18;1.73;;;6.50;99.90;;;;;;4972354;28;20675;-67
2022/02/02 08:21:10;;;;;;;9.82;2.03;;;6.50;99.90;;;;;;4972007;28;20225;-67
2022/02/02 08:23:37;;;;;;;9.02;3.10;;;6.50;99.90;;;;;;4963639;28;20208;-68
2022/02/02 08:26:10;;;;;;;6.00;2.20;;;6.60;99.90;;;;;;4950361;28;20206;-67
2022/02/02 08:28:37;;;;;;;6.10;2.10;;;6.60;99.90;;;;;;4951302;28;20208;-67
2022/02/02 08:31:04;;;;;;;7.43;1.73;;;6.60;99.90;;;;;;4947392;28;20276;-68
2022/02/02 08:33:37;;;;;;;4.22;2.00;;;6.70;99.90;;;;;;4952800;28;20233;-68
2022/02/02 08:36:08;;;;;;;1.80;1.00;;;6.70;99.90;;;;;;4948827;28;20264;-68
2022/02/02 08:38:44;;;;;;;7.57;2.95;;;6.70;99.90;;;;;;4964647;28;20214;-67
2022/02/02 08:41:14;;;;;;;10.18;2.20;;;6.70;99.90;;;;;;4971845;28;20227;-67
2022/02/02 08:43:45;;;;;;;6.97;1.38;;;6.70;99.90;;;;;;4956768;28;20208;-67
2022/02/02 08:46:21;;;;;;;5.63;1.75;;;6.70;99.90;;;;;;4955913;28;20201;-67
2022/02/02 08:48:52;;;;;;;4.05;2.03;;;6.70;99.90;;;;;;4954015;28;20236;-69
2022/02/02 08:51:21;;;;;;;7.03;2.60;;;6.70;99.90;;;;;;4944843;28;20241;-67
2022/02/02 08:53:59;;;;;;;10.43;2.35;;;6.60;99.90;;;;;;4962076;28;20323;-71
2022/02/02 08:59:20;;;;;;;16.40;2.58;;;6.80;99.90;;;;;;4952290;28;20291;-64
2022/02/02 09:01:49;;;;;;;7.97;1.58;;;6.80;99.90;;;;;;4971982;28;20233;-66
2022/02/02 09:07:01;;;;;;;1.33;1.25;;;6.80;99.90;;;;;;4972690;28;20207;-66
2022/02/02 09:09:45;;;;;;;5.10;2.00;;;6.80;99.90;;;;;;4972501;28;20204;-66
2022/02/02 09:20:56;;;;;;;9.38;1.40;;;6.80;99.90;;;;;;4972377;28;20214;-67
2022/02/02 09:23:27;;;;;;;4.07;1.60;;;6.80;99.90;;;;;;4951425;28;20304;-66
2022/02/02 09:26:02;;;;;;;3.30;2.10;;;6.80;99.90;;;;;;4966031;28;20220;-66
2022/02/02 09:31:35;;;;;;;4.18;2.33;;;6.80;99.90;;;;;;4951634;28;20271;-67
2022/02/02 09:34:04;;;;;;;4.82;1.55;;;6.80;99.90;;;;;;4967081;28;20234;-67
2022/02/02 09:36:34;;;;;;;3.83;1.90;;;6.80;99.90;;;;;;4951964;28;20279;-67
2022/02/02 09:39:08;;;;;;;5.22;1.92;;;6.80;99.90;;;;;;4953165;28;20220;-68
2022/02/02 09:41:40;;;;;;;10.65;2.38;;;6.90;99.90;;;;;;4953954;28;20239;-67
2022/02/02 09:44:10;;;;;;;4.20;2.05;;;6.90;99.90;;;;;;4953234;28;20205;-67
2022/02/02 09:46:47;;;;;;;5.90;1.88;;;7.00;99.90;;;;;;4953212;28;20263;-67
2022/02/02 09:49:20;;;;;;;6.07;2.15;;;7.00;99.90;;;;;;4953762;28;20201;-66
2022/02/02 09:51:54;;;;;;;3.60;1.73;;;7.00;99.90;;;;;;4973830;28;20228;-67
2022/02/02 09:54:25;;;;;;;5.28;2.20;;;7.00;99.90;;;;;;4957419;28;20280;-66
2022/02/02 10:00:03;;;;;;;5.53;2.10;;;7.10;99.90;;;;;;4958151;28;20209;-66
2022/02/02 10:02:36;;;;;;;10.38;2.15;;;7.10;99.90;;;;;;4956221;28;20320;-67
2022/02/02 10:05:11;;;;;;;7.78;1.88;;;7.10;99.90;;;;;;4956339;28;20756;-67
2022/02/02 10:08:10;;;;;;;7.20;2.80;;;7.10;99.90;;;;;;4955812;28;20220;-67
2022/02/02 10:13:21;;;;;;;6.10;2.10;;;7.20;99.90;;;;;;4950487;29;20654;-67
2022/02/02 10:15:49;;;;;;;5.00;2.30;;;7.10;99.90;;;;;;4952800;28;20224;-67
2022/02/02 10:18:18;;;;;;;9.93;2.30;;;7.10;99.90;;;;;;4952281;28;20695;-67
2022/02/02 10:20:49;;;;;;;5.85;1.85;;;7.10;99.90;;;;;;4952777;28;20640;-66
2022/02/02 10:23:23;;;;;;;8.88;2.20;;;7.20;99.90;;;;;;4954387;28;20296;-66
2022/02/02 10:25:57;;;;;;;6.25;2.00;;;7.30;99.90;;;;;;4956526;28;20253;-65
2022/02/02 10:28:24;;;;;;;4.80;2.20;;;7.30;99.90;;;;;;4956116;28;20243;-66
2022/02/02 10:30:53;;;;;;;8.40;2.60;;;7.30;99.90;;;;;;4955807;28;20229;-66
2022/02/02 10:33:22;;;;;;;7.95;1.88;;;7.30;99.90;;;;;;4963834;28;20693;-65
2022/02/02 10:35:50;;;;;;;4.85;1.77;;;7.40;99.90;;;;;;4976360;28;20255;-66
2022/02/02 10:38:24;;;;;;;3.90;1.70;;;7.40;99.90;;;;;;4968071;28;20201;-66
2022/02/02 10:40:55;;;;;;;6.60;2.28;;;7.30;99.90;;;;;;4953935;28;20227;-66
2022/02/02 10:43:28;;;;;;;6.80;2.50;;;7.40;99.90;;;;;;4953604;28;20261;-67
2022/02/02 10:45:54;;;;;;;9.35;1.85;;;7.30;99.90;;;;;;4960996;28;20216;-68
2022/02/02 10:48:28;;;;;;;2.80;2.15;;;7.30;99.90;;;;;;4965511;28;20544;-66
2022/02/02 10:51:04;;;;;;;5.80;1.92;;;7.30;99.90;;;;;;4953884;28;20311;-67
2022/02/02 10:56:27;;;;;;;10.32;2.45;;;7.30;99.90;;;;;;4953242;29;20277;-66
2022/02/02 10:59:17;;;;;;;2.60;1.73;;;7.30;99.90;;;;;;4954487;28;20236;-65
2022/02/02 11:01:48;;;;;;;3.42;1.88;;;7.30;99.90;;;;;;4957565;28;20237;-66
2022/02/02 11:07:01;;;;;;;2.70;1.13;;;7.40;99.90;;;;;;4955712;28;20516;-67
2022/02/02 11:09:30;;;;;;;5.82;2.10;;;7.40;99.90;;;;;;4949983;28;20213;-67
2022/02/02 11:11:58;;;;;;;3.53;2.42;;;7.50;99.90;;;;;;4954773;28;20661;-69
2022/02/02 11:14:39;;;;;;;5.45;2.30;;;7.50;99.90;;;;;;4953104;28;20233;-67
2022/02/02 11:17:10;;;;;;;1.65;1.23;;;7.50;99.90;;;;;;4947804;28;20283;-68
2022/02/02 11:19:38;;;;;;;4.95;1.92;;;7.50;99.90;;;;;;4962890;28;20252;-68
2022/02/02 11:22:30;;;;;;;7.20;2.10;;;7.60;99.90;;;;;;4960178;28;20277;-68
2022/02/02 11:24:59;;;;;;;11.15;1.63;;;7.70;99.90;;;;;;4949516;28;20552;-67
2022/02/02 11:27:34;;;;;;;4.45;1.00;;;7.70;99.90;;;;;;4962415;28;20271;-67
2022/02/02 11:30:02;;;;;;;7.07;1.55;;;7.60;99.90;;;;;;4962118;28;20263;-66
2022/02/02 11:32:42;;;;;;;7.35;1.90;;;7.60;99.90;;;;;;4954886;28;20225;-67
2022/02/02 11:35:34;;;;;;;6.32;1.90;;;7.60;99.90;;;;;;4967591;28;20298;-67
2022/02/02 11:38:05;;;;;;;2.35;1.45;;;7.70;99.90;;;;;;4970220;28;20647;-67
2022/02/02 11:40:40;;;;;;;6.47;2.38;;;7.70;99.90;;;;;;4973336;28;20208;-68
2022/02/02 11:43:12;;;;;;;8.07;2.95;;;7.70;99.90;;;;;;4974406;28;20212;-66
2022/02/02 11:45:54;;;;;;;6.45;1.92;;;7.60;99.90;;;;;;4959314;28;20253;-67
2022/02/02 11:48:57;;;;;;;4.80;1.63;;;7.60;99.90;;;;;;4959486;28;20209;-67
2022/02/02 11:51:41;;;;;;;9.30;2.25;;;7.60;99.90;;;;;;4964255;28;20287;-67
2022/02/02 11:54:08;;;;;;;5.20;2.10;;;7.70;99.90;;;;;;4968934;28;20653;-66
2022/02/02 12:00:03;;;;;;;3.30;1.85;;;7.60;99.90;;;;;;4966187;28;20214;-67
2022/02/02 12:02:43;;;;;;;9.25;1.60;;;7.60;99.90;;;;;;4953300;28;20236;-68
2022/02/02 12:05:20;;;;;;;8.73;2.55;;;7.60;99.90;;;;;;4965218;28;20605;-67
2022/02/02 12:08:03;;;;;;;7.35;1.58;;;7.60;99.90;;;;;;4960723;28;20643;-67
2022/02/02 12:10:56;;;;;;;3.35;2.00;;;7.50;99.90;;;;;;4968091;28;20292;-67
2022/02/02 12:20:02;;;;;;;4.80;1.15;;;7.40;99.90;;;;;;4914364;29;20211;-67
2022/02/02 12:28:02;;;;;;;4.28;1.63;;;7.30;99.90;;;;;;4973420;28;20219;-67
2022/02/02 12:44:50;;;;;;;3.17;2.08;;;7.30;99.90;;;;;;4952238;28;20627;-68
2022/02/02 12:47:17;;;;;;;9.13;1.88;;;7.20;99.90;;;;;;4961343;28;20200;-67
2022/02/02 12:50:00;;;;;;;4.38;1.50;;;7.20;99.90;;;;;;4970659;28;20554;-67
2022/02/02 12:58:17;;;;;;;2.90;1.38;;;7.30;99.90;;;;;;4929843;29;20245;-67
2022/02/02 13:01:07;;;;;;;2.75;1.40;;;7.30;99.90;;;;;;4954767;28;20710;-67
2022/02/02 13:03:36;;;;;;;6.20;1.90;;;7.20;99.90;;;;;;4972404;28;20255;-67
2022/02/02 13:06:03;;;;;;;4.72;1.40;;;7.20;99.90;;;;;;4972704;28;20209;-67
2022/02/02 13:08:31;;;;;;;2.17;1.48;;;7.10;99.90;;;;;;4972777;28;20208;-67
2022/02/02 13:10:58;;;;;;;2.85;1.63;;;7.10;99.90;;;;;;4953253;28;20225;-67
2022/02/02 13:13:27;;;;;;;4.72;1.67;;;7.10;99.90;;;;;;4953011;28;20255;-67
2022/02/02 13:16:05;;;;;;;4.85;1.70;;;7.20;99.90;;;;;;4934354;29;20246;-67
2022/02/02 13:18:36;;;;;;;3.45;1.48;;;7.20;99.90;;;;;;4933559;29;20221;-67
2022/02/02 13:21:09;;;;;;;4.55;1.65;;;7.30;99.90;;;;;;4940993;28;20700;-68
2022/02/02 13:23:44;;;;;;;2.92;1.85;;;7.20;99.90;;;;;;4958332;28;20224;-68
2022/02/02 13:26:16;;;;;;;0.85;0.85;;;7.10;99.90;;;;;;4952982;28;20304;-66
2022/02/02 13:28:54;;;;;;;10.40;2.42;;;7.00;99.90;;;;;;4953231;28;20256;-67
2022/02/02 13:31:35;;;;;;;5.10;1.73;;;7.10;99.90;;;;;;4952569;28;20239;-68
2022/02/02 13:34:07;;;;;;;4.40;1.98;;;7.20;99.90;;;;;;4953082;28;20217;-66
2022/02/02 13:36:51;;;;;;;3.53;1.05;;;7.20;99.90;;;;;;4952683;29;20403;-67
2022/02/02 13:42:46;;;;;;;1.05;0.70;;;7.20;99.90;;;;;;4952803;29;20224;-68
2022/02/02 13:48:41;;;;;;;3.60;1.45;;;7.00;99.90;;;;;;4878629;29;20210;-66
2022/02/02 13:51:30;;;;;;;2.60;0.80;;;7.00;99.90;;;;;;4948417;28;20224;-67
2022/02/02 13:54:30;;;;;;;2.80;0.82;;;7.00;99.90;;;;;;4961409;28;20225;-67
2022/02/02 13:57:11;;;;;;;6.70;1.25;;;7.10;99.90;;;;;;4952640;28;20248;-66
2022/02/02 14:11:29;;;;;;;4.30;1.35;;;7.20;99.90;;;;;;4932964;29;20684;-68
2022/02/02 14:33:06;;;;;;;1.85;0.80;;;7.50;99.90;;;;;;4935948;28;20251;-68
2022/02/02 14:35:34;;;;;;;2.58;1.20;;;7.40;99.90;;;;;;4950375;28;20236;-68
2022/02/02 14:38:02;;;;;;;1.83;0.73;;;7.50;99.90;;;;;;4942539;28;20230;-68
2022/02/02 14:40:37;;;;;;;3.47;1.35;;;7.50;99.90;;;;;;4943925;28;20296;-68
2022/02/02 14:43:07;;;;;;;2.15;0.93;;;7.40;99.90;;;;;;4948573;28;20201;-66
2022/02/02 14:45:38;;;;;;;0.52;0.52;;;7.40;99.90;;;;;;4945518;28;20674;-66
2022/02/02 14:48:10;;;;;;;5.22;0.77;;;7.40;99.90;;;;;;4946934;28;20419;-67
2022/02/02 14:50:50;;;;;;;4.57;1.15;;;7.40;99.90;;;;;;4937785;28;20233;-67
2022/02/02 14:53:24;;;;;;;1.23;1.10;;;7.40;99.90;;;;;;4954882;28;20287;-67
2022/02/02 15:10:05;;;;;;;2.30;1.02;;;7.40;99.90;;;;;;4918886;29;20720;-67
2022/02/02 15:29:05;;;;;;;3.22;1.00;;;7.00;99.90;;;;;;4953408;28;20279;-67
2022/02/02 15:31:35;;;;;;;2.20;1.08;;;6.90;99.90;;;;;;4950645;28;20312;-67
2022/02/02 15:34:03;;;;;;;6.68;1.15;;;6.80;99.90;;;;;;4954528;28;20578;-67
2022/02/02 15:37:04;;;;;;;3.35;1.13;;;6.80;99.90;;;;;;4939821;28;20761;-68
2022/02/02 15:39:32;;;;;;;1.48;0.90;;;6.80;99.90;;;;;;4940700;28;20209;-68
2022/02/02 15:42:15;;;;;;;4.13;1.65;;;6.80;99.90;;;;;;4946832;28;20308;-67
2022/02/02 15:45:15;;;;;;;5.30;1.63;;;6.80;99.90;;;;;;4959542;28;20694;-67
2022/02/02 15:58:37;;;;;;;5.13;1.50;;;6.50;99.90;;;;;;4950661;28;20236;-67
2022/02/02 16:01:51;;;;;;;3.38;1.30;;;6.50;99.90;;;;;;4950033;28;20229;-68
2022/02/02 16:04:10;;;;;;;1.95;0.85;;;6.40;99.90;;;;;;4954865;28;20212;-67
2022/02/02 16:06:37;;;;;;;10.95;1.15;;;6.30;99.90;;;;;;4953289;28;20213;-67
2022/02/02 16:09:16;;;;;;;2.72;1.40;;;6.20;99.90;;;;;;4947994;28;20210;-69
2022/02/02 16:11:45;;;;;;;3.58;1.40;;;6.20;99.90;;;;;;4940276;28;20232;-68
2022/02/02 16:14:21;;;;;;;2.30;1.60;;;6.10;99.90;;;;;;4942438;28;20556;-67
2022/02/02 16:17:05;;;;;;;4.45;1.48;;;6.00;99.90;;;;;;4944702;28;20212;-68
2022/02/02 16:19:42;;;;;;;1.08;1.05;;;5.90;99.90;;;;;;4954151;28;20212;-67
2022/02/02 16:25:10;;;;;;;2.65;1.25;;;5.70;99.90;;;;;;4938519;28;20208;-68
2022/02/02 16:36:17;;;;;;;4.63;0.77;;;5.50;99.90;;;;;;4929161;28;20645;-67
2022/02/02 16:38:56;;;;;;;7.65;2.60;;;5.50;99.90;;;;;;4952330;29;20198;-67
2022/02/02 16:44:07;;;;;;;3.67;1.92;;;5.60;99.90;;;;;;4943947;28;20225;-68
2022/02/02 16:46:33;;;;;;;3.03;1.95;;;5.50;99.90;;;;;;4946049;29;20209;-66
2022/02/02 16:49:00;;;;;;;5.00;2.10;;;5.50;99.90;;;;;;4941495;28;20661;-66
2022/02/02 16:51:28;;;;;;;5.25;1.30;;;5.50;99.90;;;;;;4935037;29;20237;-68
2022/02/02 16:53:58;;;;;;;4.35;2.38;;;5.40;99.90;;;;;;4947475;28;20201;-67
2022/02/02 16:56:34;;;;;;;12.93;2.30;;;5.40;99.90;;;;;;4935353;28;20248;-68
2022/02/02 17:32:16;;;;;;;4.05;2.15;;;5.30;99.90;;;;;;5111790;27;20570;-69
2022/02/02 17:34:48;;;;;;;5.60;2.88;;;5.30;99.90;;;;;;5107261;28;20200;-69
2022/02/02 17:37:36;;;;;;;9.30;2.60;;;5.20;99.90;;;;;;5105899;28;20245;-68
2022/02/02 17:40:07;;;;;;;14.27;3.45;;;5.20;99.90;;;;;;5107672;28;20216;-68
2022/02/02 17:43:07;;;;;;;7.50;3.40;;;5.10;99.90;;;;;;5107389;28;20265;-68
2022/02/02 17:45:44;;;;;;;3.65;2.22;;;5.10;99.90;;;;;;5103533;28;20287;-68
2022/02/02 17:57:07;;;;;;;6.07;1.92;;;4.90;99.90;;;;;;5009360;28;20611;-68
2022/02/02 18:13:35;;;;;;;5.10;2.60;;;4.80;99.90;;;;;;4986218;28;20230;-69
2022/02/02 18:18:52;;;;;;;3.25;2.53;;;4.80;99.90;;;;;;4976155;28;20222;-67
2022/02/02 18:21:23;;;;;;;3.75;1.98;;;4.80;99.90;;;;;;4973132;28;20287;-68
2022/02/02 18:23:55;;;;;;;5.25;2.50;;;4.70;99.90;;;;;;4987435;28;20310;-68
2022/02/02 18:26:27;;;;;;;7.20;3.03;;;4.70;99.90;;;;;;4986663;28;20685;-68
2022/02/02 18:29:00;;;;;;;8.90;3.47;;;4.70;99.90;;;;;;4987680;28;20302;-68
2022/02/02 18:31:49;;;;;;;6.35;4.10;;;4.70;99.90;;;;;;4981833;28;20299;-68
2022/02/02 18:34:25;;;;;;;10.10;2.90;;;4.70;99.90;;;;;;4987135;28;20561;-69
2022/02/02 18:36:58;;;;;;;4.30;3.13;;;4.60;99.90;;;;;;4986863;28;20641;-68
2022/02/02 18:45:32;;;;;;;16.25;7.30;;;4.60;99.90;;;;;;4973438;28;20204;-68
2022/02/02 18:48:10;;;;;;;18.13;6.32;;;4.60;99.90;;;;;;4973483;28;20806;-68
2022/02/02 18:50:58;;;;;;;15.13;6.10;;;4.60;99.90;;;;;;4965390;28;20231;-68
2022/02/02 18:59:21;;;;;;;11.73;3.90;;;4.60;99.90;;;;;;4949541;28;20730;-68
2022/02/02 19:01:54;;;;;;;6.75;3.05;;;4.50;99.90;;;;;;4953489;28;20372;-68
2022/02/02 19:04:45;;;;;;;6.53;2.67;;;4.50;99.90;;;;;;4960078;28;20224;-69
2022/02/02 19:07:29;;;;;;;10.85;3.78;;;4.40;99.90;;;;;;4974085;28;20223;-68
2022/02/02 19:30:59;;;;;;;9.65;3.65;;;4.40;99.90;;;;;;4971501;28;20276;-68
2022/02/02 19:38:20;;;;;;;8.98;3.00;;;4.10;99.90;;;;;;4965525;28;20274;-69
2022/02/02 20:01:45;;;;;;;13.50;7.30;;;3.80;99.90;;;;;;4948176;28;20436;-68
2022/02/02 20:03:37;;;;;;;7.32;3.63;;;3.80;99.90;;;;;;4956246;28;20231;-68
2022/02/02 20:06:08;;;;;;;9.25;3.75;;;3.80;99.90;;;;;;4975204;28;20219;-68
2022/02/02 20:08:43;;;;;;;7.30;4.05;;;3.70;99.90;;;;;;4989478;28;20231;-68
2022/02/02 20:11:16;;;;;;;4.78;2.85;;;3.70;99.90;;;;;;4981816;28;20273;-68
2022/02/02 20:13:43;;;;;;;10.88;3.25;;;3.70;99.90;;;;;;4973363;28;20227;-69
2022/02/02 20:16:13;;;;;;;5.68;3.70;;;3.70;99.90;;;;;;4972464;28;20592;-67
2022/02/02 20:18:43;;;;;;;9.35;3.25;;;3.60;99.90;;;;;;4971781;28;20302;-67
2022/02/02 20:21:12;;;;;;;7.00;4.00;;;3.60;99.90;;;;;;4969423;28;20334;-68
2022/02/02 20:23:43;;;;;;;7.13;4.15;;;3.60;99.90;;;;;;4964460;28;20215;-68
2022/02/02 20:26:12;;;;;;;11.63;5.35;;;3.60;99.90;;;;;;4972841;28;20201;-69
2022/02/02 20:28:39;;;;;;;9.57;3.67;;;3.50;99.90;;;;;;4971859;28;20220;-69
2022/02/02 20:31:06;;;;;;;15.27;5.03;;;3.50;99.90;;;;;;4972280;28;20236;-70
2022/02/02 20:33:34;;;;;;;7.53;4.15;;;3.40;99.90;;;;;;4971381;28;20201;-67
2022/02/02 20:36:01;;;;;;;8.52;4.03;;;3.40;99.90;;;;;;4972398;28;20864;-67
2022/02/02 20:38:27;;;;;;;11.52;4.95;;;3.40;99.90;;;;;;4972004;28;20232;-68
2022/02/02 20:40:54;;;;;;;14.93;5.68;;;3.30;99.90;;;;;;4968020;28;20209;-68
2022/02/02 20:43:30;;;;;;;14.48;6.82;;;3.30;99.90;;;;;;4978026;28;20600;-69
2022/02/02 20:46:12;;;;;;;14.23;5.85;;;3.30;99.90;;;;;;4972496;28;20204;-69
2022/02/02 21:05:26;;;;;;;8.13;3.13;;;3.10;99.90;;;;;;4974883;28;20215;-70
2022/02/02 21:08:18;;;;;;;15.90;3.33;;;3.10;99.90;;;;;;4971485;28;20231;-70
2022/02/02 21:10:45;;;;;;;9.23;3.97;;;3.10;99.90;;;;;;4971763;28;20283;-70
2022/02/02 21:15:56;;;;;;;11.63;3.92;;;3.10;99.90;;;;;;4952671;29;20685;-69
2022/02/02 21:18:31;;;;;;;9.30;4.15;;;3.10;99.90;;;;;;4952008;28;20233;-69
2022/02/02 21:21:02;;;;;;;8.07;3.33;;;3.20;99.90;;;;;;4971870;28;20291;-69
2022/02/02 21:23:44;;;;;;;9.13;3.65;;;3.20;99.90;;;;;;4970775;28;20204;-70
2022/02/02 21:26:32;;;;;;;6.45;3.92;;;3.20;99.90;;;;;;4971669;28;20307;-69
2022/02/02 21:28:59;;;;;;;19.10;6.60;;;3.20;99.90;;;;;;4971579;28;20272;-67
2022/02/02 21:31:26;;;;;;;7.43;4.57;;;3.20;99.90;;;;;;4971116;28;20303;-68
2022/02/02 21:33:52;;;;;;;10.52;4.57;;;3.20;99.90;;;;;;4971331;28;20212;-69
2022/02/02 21:36:20;;;;;;;13.05;5.10;;;3.20;99.90;;;;;;4970758;28;20260;-67
2022/02/02 21:38:57;;;;;;;25.35;10.52;;;3.20;99.90;;;;;;4971546;28;20235;-68
2022/02/02 21:41:30;;;;;;;13.32;4.40;;;3.20;99.90;;;;;;4971219;28;20209;-68
2022/02/02 21:43:57;;;;;;;11.40;4.60;;;3.20;99.90;;;;;;4971442;28;20310;-68
2022/02/02 21:46:25;;;;;;;16.35;6.47;;;3.20;99.90;;;;;;4971483;28;20291;-69
2022/02/02 21:48:53;;;;;;;10.35;5.03;;;3.20;99.90;;;;;;4970872;28;20752;-68
2022/02/02 21:51:31;;;;;;;9.63;5.68;;;3.20;99.90;;;;;;4977146;28;20315;-69
2022/02/02 21:53:58;;;;;;;9.88;3.72;;;3.20;99.90;;;;;;4952165;28;20236;-69
2022/02/02 21:56:25;;;;;;;8.10;3.00;;;3.20;99.90;;;;;;4970618;28;20204;-69
2022/02/02 21:58:52;;;;;;;12.43;3.72;;;3.20;99.90;;;;;;4971937;28;20228;-69
